Time,TemperatureF,DewpointF,PressureIn,WindDirection,WindDirectionDegrees,WindSpeedMPH,WindSpeedGustMPH,Humidity,HourlyPrecipIn,Conditions,Clouds,dailyrainin,SolarRadiationWatts/m^2,SoftwareType,DateUTC
2013-03-24 00:14:00,32.8,31.0,29.92,ENE,61,2.0,6.0,92,0.00,,,0.01,0,weatherlink.com 1.10,2013-03-24 05:14:00,
2013-03-24 00:29:00,32.8,31.0,29.94,NE,37,3.0,8.0,92,0.00,,,0.01,0,weatherlink.com 1.10,2013-03-24 05:29:00,
2013-03-24 00:44:00,32.7,31.0,29.96,NNE,19,0.0,5.0,92,0.00,,,0.01,0,weatherlink.com 1.10,2013-03-24 05:44:00,
2013-03-24 00:59:00,32.4,30.0,29.90,NE,38,2.0,10.0,91,0.00,,,0.01,0,weatherlink.com 1.10,2013-03-24 05:59:00,
2013-03-24 01:14:00,32.3,30.0,29.90,NE,36,3.0,11.0,92,0.00,,,0.01,0,weatherlink.com 1.10,2013-03-24 06:14:00,
2013-03-24 01:29:00,32.1,30.0,29.89,NE,36,3.0,9.0,92,0.00,,,0.01,0,weatherlink.com 1.10,2013-03-24 06:29:00,
2013-03-24 01:44:00,31.9,30.0,29.89,NE,36,3.0,9.0,92,0.00,,,0.01,0,weatherlink.com 1.10,2013-03-24 06:44:00,
2013-03-24 01:59:00,31.7,30.0,29.88,NE,36,8.0,8.0,92,0.00,,,0.01,0,weatherlink.com 1.10,2013-03-24 06:59:00,
2013-03-24 02:14:00,31.7,30.0,29.88,NE,36,3.0,9.0,92,0.00,,,0.01,0,weatherlink.com 1.10,2013-03-24 07:14:00,
2013-03-24 02:29:00,31.6,30.0,29.87,NE,36,2.0,8.0,92,0.00,,,0.01,0,weatherlink.com 1.10,2013-03-24 07:29:00,
2013-03-24 02:44:00,31.5,30.0,29.88,NE,36,5.0,11.0,92,0.00,,,0.01,0,weatherlink.com 1.10,2013-03-24 07:44:00,
2013-03-24 02:59:00,31.5,30.0,29.87,NE,36,5.0,9.0,93,0.00,,,0.01,0,weatherlink.com 1.10,2013-03-24 07:59:00,
2013-03-24 03:14:00,31.3,30.0,29.87,NE,36,2.0,7.0,93,0.00,,,0.01,0,weatherlink.com 1.10,2013-03-24 08:14:00,
2013-03-24 03:29:00,31.1,29.0,29.87,NE,36,1.0,7.0,93,0.00,,,0.01,0,weatherlink.com 1.10,2013-03-24 08:29:00,
2013-03-24 03:44:00,31.0,29.0,29.86,NE,36,3.0,8.0,93,0.00,,,0.01,0,weatherlink.com 1.10,2013-03-24 08:44:00,
2013-03-24 03:59:00,30.8,29.0,29.86,NE,36,4.0,7.0,94,0.00,,,0.01,0,weatherlink.com 1.10,2013-03-24 08:59:00,
2013-03-24 04:14:00,30.6,29.0,29.86,NE,36,3.0,8.0,94,0.00,,,0.01,0,weatherlink.com 1.10,2013-03-24 09:14:00,
2013-03-24 04:29:00,30.5,29.0,29.87,NE,36,2.0,10.0,94,0.00,,,0.01,0,weatherlink.com 1.10,2013-03-24 09:29:00,
2013-03-24 04:44:00,30.4,29.0,29.88,NE,36,4.0,8.0,94,0.00,,,0.01,0,weatherlink.com 1.10,2013-03-24 09:44:00,
2013-03-24 04:59:00,30.0,29.0,29.88,NE,36,3.0,8.0,94,0.00,,,0.01,0,weatherlink.com 1.10,2013-03-24 09:59:00,
2013-03-24 05:14:00,29.6,28.0,29.88,NE,36,3.0,8.0,94,0.00,,,0.01,0,weatherlink.com 1.10,2013-03-24 10:14:00,
2013-03-24 05:29:00,29.2,28.0,29.88,NE,36,3.0,9.0,94,0.00,,,0.01,0,weatherlink.com 1.10,2013-03-24 10:29:00,
2013-03-24 05:44:00,28.9,27.0,29.88,NE,36,4.0,9.0,94,0.00,,,0.01,0,weatherlink.com 1.10,2013-03-24 10:44:00,
2013-03-24 05:59:00,28.8,27.0,29.88,NE,36,3.0,13.0,94,0.00,,,0.01,0,weatherlink.com 1.10,2013-03-24 10:59:00,
2013-03-24 06:14:00,28.8,27.0,29.89,NE,36,4.0,12.0,94,0.00,,,0.01,0,weatherlink.com 1.10,2013-03-24 11:14:00,
2013-03-24 06:29:00,28.8,27.0,29.89,NE,36,2.0,11.0,94,0.00,,,0.01,0,weatherlink.com 1.10,2013-03-24 11:29:00,
2013-03-24 06:44:00,28.7,28.0,29.90,NE,36,5.0,9.0,95,0.00,,,0.01,0,weatherlink.com 1.10,2013-03-24 11:44:00,
2013-03-24 06:59:00,28.6,27.0,29.90,NE,36,3.0,11.0,95,0.00,,,0.01,0,weatherlink.com 1.10,2013-03-24 11:59:00,
2013-03-24 07:14:00,28.5,27.0,29.91,NE,36,2.0,9.0,95,0.00,,,0.01,0,weatherlink.com 1.10,2013-03-24 12:14:00,
2013-03-24 07:29:00,28.6,27.0,29.91,NE,36,5.0,10.0,95,0.00,,,0.01,0,weatherlink.com 1.10,2013-03-24 12:29:00,
2013-03-24 07:44:00,28.6,27.0,29.92,NE,36,3.0,10.0,95,0.00,,,0.01,7,weatherlink.com 1.10,2013-03-24 12:44:00,
2013-03-24 07:59:00,28.6,27.0,29.93,NE,36,4.0,7.0,95,0.00,,,0.01,9,weatherlink.com 1.10,2013-03-24 12:59:00,
2013-03-24 08:14:00,28.3,27.0,29.94,NE,36,6.0,9.0,94,0.00,,,0.01,12,weatherlink.com 1.10,2013-03-24 13:14:00,
2013-03-24 08:29:00,28.1,27.0,29.94,NE,36,1.0,10.0,94,0.00,,,0.01,16,weatherlink.com 1.10,2013-03-24 13:29:00,
2013-03-24 08:44:00,28.0,27.0,29.95,NE,36,4.0,8.0,94,0.00,,,0.01,25,weatherlink.com 1.10,2013-03-24 13:44:00,
2013-03-24 08:59:00,28.1,27.0,29.95,NE,36,0.0,6.0,94,0.00,,,0.01,35,weatherlink.com 1.10,2013-03-24 13:59:00,
2013-03-24 09:15:00,28.3,27.0,29.95,NE,36,3.0,8.0,94,0.00,,,0.01,46,weatherlink.com 1.10,2013-03-24 14:15:00,
2013-03-24 09:30:00,28.1,27.0,29.95,NE,36,2.0,8.0,94,0.00,,,0.01,62,weatherlink.com 1.10,2013-03-24 14:30:00,
2013-03-24 09:45:00,28.2,27.0,29.95,NE,36,2.0,7.0,94,0.00,,,0.01,76,weatherlink.com 1.10,2013-03-24 14:45:00,
2013-03-24 10:00:00,28.1,27.0,29.95,NE,36,1.0,8.0,94,0.00,,,0.01,90,weatherlink.com 1.10,2013-03-24 15:00:00,
2013-03-24 10:15:00,28.1,27.0,29.96,NE,36,3.0,8.0,94,0.00,,,0.01,91,weatherlink.com 1.10,2013-03-24 15:15:00,
2013-03-24 10:30:00,28.0,27.0,29.96,NE,36,2.0,7.0,94,0.00,,,0.01,113,weatherlink.com 1.10,2013-03-24 15:30:00,
2013-03-24 10:45:00,28.0,26.0,29.97,NE,36,2.0,10.0,93,0.00,,,0.00,135,weatherlink.com 1.10,2013-03-24 15:45:00,
2013-03-24 11:00:00,28.4,27.0,29.97,NNE,15,3.0,9.0,93,0.00,,,0.00,149,weatherlink.com 1.10,2013-03-24 16:00:00,
2013-03-24 11:15:00,28.6,27.0,29.98,NNW,338,3.0,11.0,93,0.00,,,0.00,153,weatherlink.com 1.10,2013-03-24 16:15:00,
2013-03-24 11:30:00,28.8,27.0,29.99,NNW,331,3.0,11.0,92,0.01,,,0.01,169,weatherlink.com 1.10,2013-03-24 16:30:00,
2013-03-24 11:45:00,29.3,27.0,29.99,NW,314,4.0,12.0,91,0.01,,,0.01,190,weatherlink.com 1.10,2013-03-24 16:45:00,
2013-03-24 12:00:00,29.6,27.0,29.99,WSW,257,6.0,11.0,91,0.02,,,0.02,193,weatherlink.com 1.10,2013-03-24 17:00:00,
2013-03-24 12:15:00,30.1,28.0,29.99,ENE,60,4.0,15.0,91,0.03,,,0.03,225,weatherlink.com 1.10,2013-03-24 17:15:00,
2013-03-24 12:30:00,30.4,28.0,29.99,North,5,7.0,16.0,89,0.02,,,0.03,230,weatherlink.com 1.10,2013-03-24 17:30:00,
2013-03-24 13:00:00,30.8,27.0,29.99,NW,313,4.0,16.0,86,0.03,,,0.05,278,weatherlink.com 1.10,2013-03-24 18:00:00,
2013-03-24 13:15:00,31.4,27.0,29.99,WNW,286,12.0,18.0,84,0.03,,,0.06,306,weatherlink.com 1.10,2013-03-24 18:15:00,
2013-03-24 13:30:00,31.7,27.0,30.00,SW,235,5.0,17.0,83,0.04,,,0.07,367,weatherlink.com 1.10,2013-03-24 18:30:00,
2013-03-24 13:45:00,32.3,27.0,30.00,West,263,6.0,15.0,82,0.04,,,0.08,355,weatherlink.com 1.10,2013-03-24 18:45:00,
2013-03-24 14:00:00,32.7,27.0,30.00,North,360,8.0,20.0,79,0.03,,,0.08,322,weatherlink.com 1.10,2013-03-24 19:00:00,
2013-03-24 14:15:00,31.9,25.0,30.00,WSW,257,10.0,19.0,76,0.03,,,0.09,301,weatherlink.com 1.10,2013-03-24 19:15:00,
2013-03-24 14:30:00,31.3,26.0,30.00,SW,234,5.0,16.0,79,0.03,,,0.10,192,weatherlink.com 1.10,2013-03-24 19:30:00,
2013-03-24 14:45:00,30.8,25.0,30.01,WSW,239,3.0,17.0,79,0.02,,,0.10,264,weatherlink.com 1.10,2013-03-24 19:45:00,
2013-03-24 15:00:00,31.0,26.0,30.01,WNW,293,11.0,13.0,80,0.01,,,0.10,241,weatherlink.com 1.10,2013-03-24 20:00:00,
2013-03-24 15:15:00,30.6,25.0,30.01,West,271,6.0,19.0,80,0.02,,,0.11,385,weatherlink.com 1.10,2013-03-24 20:15:00,
2013-03-24 15:30:00,31.2,25.0,30.01,WNW,290,6.0,18.0,78,0.01,,,0.11,443,weatherlink.com 1.10,2013-03-24 20:30:00,
2013-03-24 15:45:00,31.3,25.0,30.01,WNW,284,11.0,17.0,76,0.01,,,0.11,410,weatherlink.com 1.10,2013-03-24 20:45:00,
2013-03-24 16:01:00,31.4,25.0,30.02,NW,319,10.0,12.0,76,0.02,,,0.12,336,weatherlink.com 1.10,2013-03-24 21:01:00,
2013-03-24 16:16:00,31.0,24.0,30.03,South,190,4.0,16.0,76,0.01,,,0.12,279,weatherlink.com 1.10,2013-03-24 21:16:00,
2013-03-24 16:31:00,30.8,24.0,30.03,SW,229,5.0,16.0,75,0.02,,,0.13,295,weatherlink.com 1.10,2013-03-24 21:31:00,
2013-03-24 17:01:00,30.2,23.0,30.03,West,272,6.0,21.0,75,0.01,,,0.13,223,weatherlink.com 1.10,2013-03-24 22:01:00,
2013-03-24 17:46:00,30.2,23.0,30.05,NW,304,6.0,13.0,74,0.00,,,0.13,158,weatherlink.com 1.10,2013-03-24 22:46:00,
2013-03-24 18:16:00,30.3,23.0,30.05,West,279,7.0,17.0,74,0.00,,,0.13,118,weatherlink.com 1.10,2013-03-24 23:16:00,
2013-03-24 18:31:00,30.3,23.0,30.06,SW,221,7.0,13.0,74,0.00,,,0.13,120,weatherlink.com 1.10,2013-03-24 23:31:00,
2013-03-24 18:46:00,30.3,23.0,30.07,WSW,252,1.0,13.0,74,0.00,,,0.13,69,weatherlink.com 1.10,2013-03-24 23:46:00,
2013-03-24 19:01:00,30.2,23.0,30.08,NW,319,2.0,9.0,74,0.00,,,0.13,44,weatherlink.com 1.10,2013-03-25 00:01:00,
2013-03-24 19:46:00,29.3,23.0,30.09,NNE,22,1.0,10.0,77,0.00,,,0.13,0,weatherlink.com 1.10,2013-03-25 00:46:00,
2013-03-24 20:01:00,29.2,23.0,30.09,NW,316,1.0,9.0,78,0.00,,,0.13,0,weatherlink.com 1.10,2013-03-25 01:01:00,
2013-03-24 20:16:00,28.8,23.0,30.10,North,11,2.0,6.0,79,0.00,,,0.13,0,weatherlink.com 1.10,2013-03-25 01:16:00,
2013-03-24 20:31:00,28.6,23.0,30.10,NW,320,1.0,13.0,78,0.00,,,0.13,0,weatherlink.com 1.10,2013-03-25 01:31:00,
2013-03-24 20:46:00,28.1,22.0,30.10,WNW,291,5.0,9.0,78,0.00,,,0.13,0,weatherlink.com 1.10,2013-03-25 01:46:00,
2013-03-24 21:01:00,27.6,22.0,30.11,SW,221,4.0,10.0,78,0.00,,,0.13,0,weatherlink.com 1.10,2013-03-25 02:01:00,
2013-03-24 21:16:00,27.1,21.0,30.11,North,355,3.0,6.0,78,0.00,,,0.13,0,weatherlink.com 1.10,2013-03-25 02:16:00,
2013-03-24 21:31:00,26.6,21.0,30.11,WSW,247,2.0,6.0,79,0.00,,,0.13,0,weatherlink.com 1.10,2013-03-25 02:31:00,
2013-03-24 21:46:00,26.3,21.0,30.12,West,269,0.0,6.0,79,0.00,,,0.13,0,weatherlink.com 1.10,2013-03-25 02:46:00,
2013-03-24 22:01:00,26.0,20.0,30.12,WNW,287,7.0,9.0,77,0.00,,,0.13,0,weatherlink.com 1.10,2013-03-25 03:01:00,
2013-03-24 22:16:00,25.8,19.0,30.12,West,267,1.0,6.0,75,0.00,,,0.13,0,weatherlink.com 1.10,2013-03-25 03:16:00,
2013-03-24 22:31:00,25.7,19.0,30.13,WNW,292,5.0,10.0,75,0.00,,,0.13,0,weatherlink.com 1.10,2013-03-25 03:31:00,
2013-03-24 22:46:00,25.4,18.0,30.12,WNW,282,2.0,10.0,74,0.00,,,0.13,0,weatherlink.com 1.10,2013-03-25 03:46:00,
2013-03-24 23:16:00,24.9,18.0,30.12,NW,316,3.0,7.0,75,0.00,,,0.13,0,weatherlink.com 1.10,2013-03-25 04:16:00,
2013-03-24 23:31:00,24.6,18.0,30.12,NW,319,4.0,7.0,76,0.00,,,0.13,0,weatherlink.com 1.10,2013-03-25 04:31:00,
2013-03-24 23:47:00,24.2,18.0,30.12,WNW,291,5.0,6.0,76,0.00,,,0.13,0,weatherlink.com 1.10,2013-03-25 04:47:00,